createdAt,value
2018-10-16T00:00:51.864Z,14.17
2018-10-16T00:03:20.417Z,15.23
2018-10-16T00:05:48.598Z,16.80
2018-10-16T00:08:16.803Z,13.77
2018-10-16T00:10:45.803Z,16.50
2018-10-16T00:13:13.971Z,15.17
2018-10-16T00:15:42.171Z,15.63
2018-10-16T00:18:12.276Z,15.53
2018-10-16T00:20:40.866Z,13.17
2018-10-16T00:23:10.152Z,14.73
2018-10-16T00:25:38.302Z,13.17
2018-10-16T00:28:06.726Z,14.03
2018-10-16T00:30:34.909Z,13.97
2018-10-16T00:33:03.098Z,13.80
2018-10-16T00:35:31.239Z,13.97
2018-10-16T00:37:59.479Z,15.07
2018-10-16T00:40:27.662Z,13.63
2018-10-16T00:42:55.861Z,15.43
2018-10-16T00:45:24.090Z,13.77
2018-10-16T00:47:52.305Z,15.27
2018-10-16T00:50:20.562Z,15.23
2018-10-16T00:52:51.804Z,15.70
2018-10-16T00:55:20.022Z,14.27
2018-10-16T00:57:49.358Z,13.90
2018-10-16T01:00:17.534Z,13.67
2018-10-16T01:02:45.823Z,14.77
2018-10-16T01:05:14.076Z,14.33
2018-10-16T01:07:42.707Z,13.80
2018-10-16T01:10:11.799Z,12.53
2018-10-16T01:12:40.411Z,12.77
2018-10-16T01:15:09.847Z,13.50
2018-10-16T01:17:38.728Z,13.63
2018-10-16T01:20:09.994Z,17.82
2018-10-16T01:22:38.219Z,16.40
2018-10-16T01:25:07.813Z,15.40
2018-10-16T01:27:36.256Z,18.50
2018-10-16T01:30:04.720Z,13.67
2018-10-16T01:32:32.876Z,14.50
2018-10-16T01:35:01.078Z,15.60
2018-10-16T01:37:29.331Z,13.67
2018-10-16T01:39:57.697Z,16.10
2018-10-16T01:42:26.071Z,14.63
2018-10-16T01:44:54.317Z,14.97
2018-10-16T01:47:24.731Z,12.87
2018-10-16T01:49:52.968Z,14.97
2018-10-16T01:52:21.194Z,13.77
2018-10-16T01:54:49.408Z,16.50
2018-10-16T01:57:17.827Z,13.00
2018-10-16T01:59:46.046Z,13.70
2018-10-16T02:02:14.290Z,15.90
2018-10-16T02:04:42.512Z,14.40
2018-10-16T02:07:10.928Z,14.30
2018-10-16T02:09:39.133Z,17.57
2018-10-16T02:12:07.384Z,14.57
2018-10-16T02:14:35.658Z,15.23
2018-10-16T02:17:04.040Z,17.57
2018-10-16T02:19:32.243Z,17.87
2018-10-16T02:22:00.451Z,15.17
2018-10-16T02:24:28.631Z,17.80
2018-10-16T02:26:56.810Z,16.60
2018-10-16T02:29:25.091Z,17.60
2018-10-16T02:31:53.419Z,16.87
2018-10-16T02:34:21.781Z,17.13
2018-10-16T02:36:50.204Z,17.83
2018-10-16T02:39:18.411Z,14.47
2018-10-16T02:41:46.611Z,16.10
2018-10-16T02:44:14.784Z,18.40
2018-10-16T02:46:43.070Z,14.90
2018-10-16T02:49:11.286Z,16.07
2018-10-16T02:51:39.421Z,16.17
2018-10-16T02:54:07.613Z,20.43
2018-10-16T02:56:35.995Z,20.70
2018-10-16T02:59:04.174Z,19.83
2018-10-16T03:01:32.415Z,18.10
2018-10-16T03:04:00.684Z,17.07
2018-10-16T03:06:29.064Z,20.30
2018-10-16T03:08:57.329Z,20.83
2018-10-16T03:11:25.521Z,22.23
2018-10-16T03:13:53.701Z,16.13
2018-10-16T03:16:21.882Z,16.27
2018-10-16T03:18:50.069Z,18.20
2018-10-16T03:21:18.253Z,16.63
2018-10-16T03:23:46.406Z,15.80
2018-10-16T03:26:15.782Z,19.00
2018-10-16T03:28:44.316Z,19.10
2018-10-16T03:31:12.605Z,17.83
2018-10-16T03:33:40.837Z,16.70
2018-10-16T03:36:09.071Z,17.10
2018-10-16T03:38:37.267Z,17.93
2018-10-16T03:41:05.539Z,21.47
2018-10-16T03:43:36.005Z,15.03
2018-10-16T03:46:04.223Z,20.97
2018-10-16T03:48:32.380Z,17.13
2018-10-16T03:51:00.606Z,17.30
2018-10-16T03:53:28.825Z,16.63
2018-10-16T03:55:57.062Z,18.33
2018-10-16T03:58:26.507Z,16.47
2018-10-16T04:00:54.706Z,17.30
2018-10-16T04:03:22.894Z,17.70
2018-10-16T04:05:51.177Z,18.83
2018-10-16T04:08:20.466Z,16.73
2018-10-16T04:10:48.663Z,17.97
2018-10-16T04:13:16.811Z,18.07
2018-10-16T04:15:44.992Z,16.70
2018-10-16T04:18:13.456Z,18.67
2018-10-16T04:20:41.618Z,17.70
2018-10-16T04:23:09.806Z,18.13
2018-10-16T04:25:38.000Z,18.17
2018-10-16T04:28:06.260Z,19.50
2018-10-16T04:30:34.609Z,20.20
2018-10-16T04:33:02.842Z,19.83
2018-10-16T04:35:31.064Z,20.10
2018-10-16T04:37:59.377Z,19.23
2018-10-16T04:40:27.580Z,19.90
2018-10-16T04:42:55.771Z,22.17
2018-10-16T04:45:23.975Z,19.77
2018-10-16T04:47:52.256Z,19.50
2018-10-16T04:50:20.464Z,22.10
2018-10-16T04:52:48.688Z,18.87
2018-10-16T04:55:16.934Z,17.47
2018-10-16T04:57:45.157Z,20.47
2018-10-16T05:00:13.387Z,18.93
2018-10-16T05:02:42.240Z,17.93
2018-10-16T05:05:18.254Z,18.13
2018-10-16T05:07:46.417Z,19.17
2018-10-16T05:10:14.620Z,21.00
2018-10-16T05:12:42.789Z,20.30
2018-10-16T05:15:14.818Z,17.80
2018-10-16T05:17:42.966Z,22.73
2018-10-16T05:20:11.136Z,19.30
2018-10-16T05:22:39.392Z,17.83
2018-10-16T05:25:08.132Z,18.70
2018-10-16T05:27:36.335Z,18.03
2018-10-16T05:30:04.693Z,20.50
2018-10-16T05:32:32.880Z,19.33
2018-10-16T05:35:01.041Z,18.53
2018-10-16T05:37:30.260Z,18.83
2018-10-16T05:39:58.417Z,20.20
2018-10-16T05:42:26.664Z,21.30
2018-10-16T05:45:01.478Z,21.27
2018-10-16T05:47:29.728Z,19.60
2018-10-16T05:49:57.921Z,19.90
2018-10-16T05:52:26.202Z,22.07
2018-10-16T05:54:54.478Z,19.40
2018-10-16T05:57:22.927Z,21.63
2018-10-16T06:00:00.152Z,19.90
2018-10-16T06:02:28.384Z,19.60
2018-10-16T06:04:56.640Z,17.73
2018-10-16T06:07:24.996Z,18.27
2018-10-16T06:09:53.150Z,19.53
2018-10-16T06:12:21.430Z,17.83
2018-10-16T06:14:49.573Z,18.30
2018-10-16T06:17:17.832Z,17.10
2018-10-16T06:19:46.059Z,19.07
2018-10-16T06:22:14.332Z,18.37
2018-10-16T06:24:42.598Z,19.63
2018-10-16T06:27:10.903Z,21.33
2018-10-16T06:29:39.149Z,20.30
2018-10-16T06:32:07.313Z,21.67
2018-10-16T06:34:35.525Z,22.73
2018-10-16T06:37:05.072Z,24.73
2018-10-16T06:39:33.239Z,23.50
2018-10-16T06:42:01.394Z,25.67
2018-10-16T06:44:29.567Z,26.83
2018-10-16T06:46:58.130Z,28.27
2018-10-16T06:49:27.076Z,30.67
2018-10-16T06:51:55.366Z,32.10
2018-10-16T06:54:23.618Z,29.27
2018-10-16T06:56:51.926Z,32.33
2018-10-16T06:59:20.135Z,28.93
2018-10-16T07:01:48.314Z,32.50
2018-10-16T07:04:16.538Z,27.90
2018-10-16T07:06:47.782Z,31.97
2018-10-16T07:09:15.905Z,31.67
2018-10-16T07:11:44.103Z,30.00
2018-10-16T07:14:12.310Z,29.77
2018-10-16T07:16:41.581Z,30.40
2018-10-16T07:19:10.544Z,31.03
2018-10-16T07:21:39.102Z,30.17
2018-10-16T07:24:08.299Z,32.00
2018-10-16T07:26:37.583Z,31.23
2018-10-16T07:29:06.611Z,28.27
2018-10-16T07:31:34.988Z,32.07
2018-10-16T07:34:03.188Z,31.40
2018-10-16T07:36:32.572Z,29.73
2018-10-16T07:39:01.031Z,33.00
2018-10-16T07:41:29.074Z,34.43
2018-10-16T07:43:57.242Z,30.57
2018-10-16T07:46:25.631Z,31.77
2018-10-16T07:48:53.890Z,30.30
2018-10-16T07:51:22.198Z,30.00
2018-10-16T07:53:50.344Z,29.20
2018-10-16T07:56:18.516Z,27.07
2018-10-16T07:58:46.702Z,32.13
2018-10-16T08:01:14.900Z,31.50
2018-10-16T08:03:43.090Z,28.63
2018-10-16T08:06:11.298Z,38.27
2018-10-16T08:08:39.537Z,28.10
2018-10-16T08:11:07.744Z,28.83
2018-10-16T08:13:35.902Z,28.03
2018-10-16T08:16:04.056Z,29.57
2018-10-16T08:18:33.414Z,30.73
2018-10-16T08:21:01.646Z,29.73
2018-10-16T08:23:29.872Z,28.53
2018-10-16T08:25:58.019Z,33.27
2018-10-16T08:28:26.273Z,29.53
2018-10-16T08:30:54.480Z,30.77
2018-10-16T08:33:22.675Z,30.67
2018-10-16T08:35:50.930Z,29.73
2018-10-16T08:38:28.875Z,28.50
2018-10-16T08:40:57.806Z,32.07
2018-10-16T08:43:44.031Z,29.23
2018-10-16T08:46:23.678Z,29.43
2018-10-16T08:49:03.719Z,29.97
2018-10-16T08:51:38.077Z,34.40
2018-10-16T08:54:06.666Z,34.57
2018-10-16T08:56:35.138Z,35.00
2018-10-16T08:59:03.811Z,34.20
2018-10-16T09:01:32.045Z,32.40
2018-10-16T09:04:01.167Z,27.20
2018-10-16T09:06:31.819Z,30.37
2018-10-16T09:09:00.134Z,32.03
2018-10-16T09:11:28.353Z,28.50
2018-10-16T09:13:56.592Z,29.67
2018-10-16T09:16:25.135Z,28.87
2018-10-16T09:18:53.392Z,31.90
2018-10-16T09:21:21.611Z,32.03
2018-10-16T09:23:49.798Z,31.07
2018-10-16T09:26:17.996Z,29.65
2018-10-16T09:28:46.214Z,33.07
2018-10-16T09:31:14.404Z,31.70
2018-10-16T09:33:42.600Z,30.57
2018-10-16T09:36:10.769Z,27.87
2018-10-16T09:38:39.292Z,32.30
2018-10-16T09:41:07.636Z,28.10
2018-10-16T09:43:35.824Z,29.67
2018-10-16T09:46:04.051Z,29.60
2018-10-16T09:48:32.371Z,25.40
2018-10-16T09:51:00.548Z,23.40
2018-10-16T09:53:28.830Z,24.70
2018-10-16T09:55:57.090Z,25.70
2018-10-16T09:58:25.589Z,23.17
2018-10-16T10:00:59.299Z,25.77
2018-10-16T10:03:27.443Z,24.53
2018-10-16T10:05:55.685Z,25.00
2018-10-16T10:08:24.528Z,23.93
2018-10-16T10:10:52.795Z,25.27
2018-10-16T10:13:20.915Z,24.17
2018-10-16T10:15:49.095Z,21.37
2018-10-16T10:18:18.363Z,22.63
2018-10-16T10:20:46.548Z,22.07
2018-10-16T10:23:14.840Z,22.80
2018-10-16T10:25:43.002Z,21.00
2018-10-16T10:28:11.346Z,22.20
2018-10-16T10:30:39.553Z,23.43
2018-10-16T10:33:07.812Z,23.03
2018-10-16T10:35:36.184Z,18.90
2018-10-16T10:38:04.441Z,17.90
2018-10-16T10:40:32.636Z,21.27
2018-10-16T10:43:00.783Z,18.30
2018-10-16T10:45:28.988Z,18.83
2018-10-16T10:47:58.343Z,18.33
2018-10-16T10:50:26.762Z,17.93
2018-10-16T10:52:54.840Z,23.10
2018-10-16T10:55:23.051Z,18.87
2018-10-16T10:57:51.468Z,19.40
2018-10-16T11:00:19.631Z,17.70
2018-10-16T11:02:48.749Z,25.03
2018-10-16T11:05:16.934Z,19.50
2018-10-16T11:07:46.364Z,18.83
2018-10-16T11:10:15.032Z,18.43
2018-10-16T11:12:44.070Z,16.03
2018-10-16T11:15:12.275Z,18.13
2018-10-16T11:17:40.751Z,15.50
2018-10-16T11:20:10.912Z,14.87
2018-10-16T11:22:39.259Z,14.47
2018-10-16T11:25:09.273Z,14.05
2018-10-16T11:27:37.951Z,16.13
2018-10-16T11:30:09.532Z,15.63
2018-10-16T11:32:38.072Z,15.00
2018-10-16T11:35:06.964Z,12.00
2018-10-16T11:37:35.216Z,15.13
2018-10-16T11:40:03.516Z,11.57
2018-10-16T11:42:31.740Z,9.83
2018-10-16T11:45:00.073Z,14.13
2018-10-16T11:47:28.379Z,10.43
2018-10-16T11:49:56.647Z,9.13
2018-10-16T11:52:24.989Z,8.93
2018-10-16T11:54:53.209Z,9.67
2018-10-16T11:57:21.462Z,11.17
2018-10-16T11:59:49.688Z,11.23
2018-10-16T12:02:17.942Z,8.97
2018-10-16T12:04:46.129Z,18.07
2018-10-16T12:07:14.525Z,10.50
2018-10-16T12:09:42.870Z,7.90
2018-10-16T12:12:11.082Z,8.10
2018-10-16T12:14:39.317Z,10.70
2018-10-16T12:17:12.774Z,6.93
2018-10-16T12:19:45.018Z,7.50
2018-10-16T12:22:13.240Z,10.50
2018-10-16T12:24:41.468Z,16.17
2018-10-16T12:27:09.894Z,9.73
2018-10-16T12:29:38.060Z,7.87
2018-10-16T12:32:06.323Z,8.07
2018-10-16T12:34:34.490Z,8.27
2018-10-16T12:37:02.883Z,8.47
2018-10-16T12:39:31.105Z,7.77
2018-10-16T12:41:59.422Z,7.23
2018-10-16T12:44:27.605Z,9.70
2018-10-16T12:46:56.011Z,7.80
2018-10-16T12:49:24.170Z,8.73
2018-10-16T12:51:52.388Z,8.00
2018-10-16T12:54:20.532Z,9.10
2018-10-16T12:56:49.925Z,9.40
2018-10-16T12:59:18.018Z,10.63
2018-10-16T13:01:46.231Z,11.47
2018-10-16T13:04:14.445Z,7.03
2018-10-16T13:06:43.184Z,8.60
2018-10-16T13:09:12.266Z,6.53
2018-10-16T13:11:41.328Z,11.17
2018-10-16T13:14:09.677Z,6.47
2018-10-16T13:16:38.395Z,8.57
2018-10-16T13:19:06.560Z,9.63
2018-10-16T13:21:34.946Z,11.97
2018-10-16T13:24:03.516Z,7.33
2018-10-16T13:26:31.849Z,7.50
2018-10-16T13:29:00.012Z,7.57
2018-10-16T13:31:28.616Z,7.33
2018-10-16T13:33:57.014Z,6.30
2018-10-16T13:36:25.591Z,7.53
2018-10-16T13:38:53.840Z,12.13
2018-10-16T13:41:22.685Z,7.20
2018-10-16T13:43:51.088Z,9.13
2018-10-16T13:46:20.346Z,7.05
2018-10-16T13:48:48.748Z,7.73
2018-10-16T13:51:17.068Z,7.93
2018-10-16T13:53:45.811Z,6.83
2018-10-16T13:56:14.174Z,8.03
2018-10-16T13:58:42.355Z,6.83
2018-10-16T14:01:10.557Z,6.20
2018-10-16T14:03:38.756Z,9.13
2018-10-16T14:06:06.956Z,8.80
2018-10-16T14:08:35.260Z,6.37
2018-10-16T14:11:03.438Z,8.40
2018-10-16T14:13:31.653Z,6.33
2018-10-16T14:15:59.845Z,6.53
2018-10-16T14:18:28.149Z,13.00
2018-10-16T14:20:56.306Z,6.57
2018-10-16T14:23:24.486Z,10.20
2018-10-16T14:25:52.785Z,9.13
2018-10-16T14:28:21.070Z,7.53
2018-10-16T14:30:49.204Z,6.53
2018-10-16T14:33:17.385Z,10.77
2018-10-16T14:35:45.671Z,9.03
2018-10-16T14:38:13.956Z,8.53
2018-10-16T14:40:42.224Z,6.93
2018-10-16T14:43:10.308Z,8.93
2018-10-16T14:45:38.543Z,6.67
2018-10-16T14:48:07.877Z,6.13
2018-10-16T14:50:36.003Z,10.83
2018-10-16T14:53:04.221Z,10.87
2018-10-16T14:55:32.364Z,6.43
2018-10-16T14:58:00.699Z,5.90
2018-10-16T15:00:28.881Z,6.43
2018-10-16T15:02:57.036Z,5.73
2018-10-16T15:05:25.204Z,10.33
2018-10-16T15:07:53.604Z,7.10
2018-10-16T15:10:21.797Z,8.77
2018-10-16T15:12:49.913Z,8.00
2018-10-16T15:15:18.147Z,7.30
2018-10-16T15:17:46.504Z,6.63
2018-10-16T15:20:14.767Z,7.17
2018-10-16T15:22:42.955Z,5.30
2018-10-16T15:25:11.173Z,7.40
2018-10-16T15:27:39.492Z,5.67
2018-10-16T15:30:08.904Z,6.83
2018-10-16T15:32:37.309Z,7.50
2018-10-16T15:35:06.507Z,5.80
2018-10-16T15:37:34.809Z,6.27
2018-10-16T15:40:03.102Z,7.43
2018-10-16T15:42:31.215Z,8.37
2018-10-16T15:44:59.490Z,9.73
2018-10-16T15:47:27.954Z,10.35
2018-10-16T15:49:56.140Z,10.00
2018-10-16T15:52:24.496Z,8.83
2018-10-16T15:54:52.790Z,7.07
2018-10-16T15:57:21.518Z,8.50
2018-10-16T15:59:49.672Z,7.27
2018-10-16T16:02:18.079Z,11.33
2018-10-16T16:04:46.411Z,8.63
2018-10-16T16:07:14.701Z,16.93
2018-10-16T16:09:42.903Z,7.97
2018-10-16T16:12:12.030Z,7.37
2018-10-16T16:14:40.231Z,13.83
2018-10-16T16:17:08.647Z,8.77
2018-10-16T16:19:36.836Z,8.17
2018-10-16T16:22:05.741Z,9.40
2018-10-16T16:24:33.902Z,8.27
2018-10-16T16:27:02.670Z,7.53
2018-10-16T16:29:30.934Z,8.17
2018-10-16T16:31:59.199Z,9.83
2018-10-16T16:34:27.393Z,11.53
2018-10-16T16:36:55.613Z,10.60
2018-10-16T16:39:23.922Z,8.30
2018-10-16T16:41:52.065Z,8.17
2018-10-16T16:44:20.229Z,7.20
2018-10-16T16:46:48.372Z,8.50
2018-10-16T16:49:16.552Z,8.70
2018-10-16T16:51:44.808Z,10.33
2018-10-16T16:54:13.011Z,7.23
2018-10-16T16:56:42.199Z,8.57
2018-10-16T16:59:10.450Z,7.20
2018-10-16T17:01:38.598Z,9.60
2018-10-16T17:04:06.884Z,8.43
2018-10-16T17:06:35.093Z,8.33
2018-10-16T17:09:04.104Z,10.97
2018-10-16T17:11:32.317Z,11.23
2018-10-16T17:14:00.629Z,10.33
2018-10-16T17:16:28.793Z,8.67
2018-10-16T17:18:56.975Z,7.53
2018-10-16T17:21:25.175Z,10.20
2018-10-16T17:23:53.406Z,11.23
2018-10-16T17:26:21.798Z,8.43
2018-10-16T17:28:49.897Z,8.40
2018-10-16T17:31:18.093Z,10.20
2018-10-16T17:33:46.315Z,11.50
2018-10-16T17:36:14.513Z,10.90
2018-10-16T17:38:42.722Z,12.00
2018-10-16T17:41:10.935Z,9.43
2018-10-16T17:43:39.167Z,8.50
2018-10-16T17:46:07.674Z,13.10
2018-10-16T17:48:36.087Z,9.67
2018-10-16T17:51:04.433Z,10.10
2018-10-16T17:53:32.569Z,9.30
2018-10-16T17:56:00.744Z,9.73
2018-10-16T17:58:29.369Z,10.23
2018-10-16T18:00:57.561Z,12.60
2018-10-16T18:03:25.791Z,12.57
2018-10-16T18:05:55.087Z,12.13
2018-10-16T18:08:23.418Z,12.63
2018-10-16T18:10:51.624Z,10.30
2018-10-16T18:13:19.812Z,10.67
2018-10-16T18:15:47.994Z,11.50
2018-10-16T18:18:16.423Z,10.53
2018-10-16T18:20:44.640Z,11.07
2018-10-16T18:23:12.829Z,13.30
2018-10-16T18:25:40.993Z,13.60
2018-10-16T18:28:09.250Z,13.17
2018-10-16T18:30:37.506Z,13.83
2018-10-16T18:33:06.179Z,12.77
2018-10-16T18:35:35.164Z,12.93
2018-10-16T18:38:03.548Z,12.87
2018-10-16T18:40:31.775Z,15.80
2018-10-16T18:42:59.954Z,15.67
2018-10-16T18:45:28.149Z,15.83
2018-10-16T18:47:56.409Z,16.20
2018-10-16T18:50:24.582Z,16.47
2018-10-16T18:52:52.830Z,14.73
2018-10-16T18:55:21.037Z,18.07
2018-10-16T18:57:49.403Z,17.83
2018-10-16T19:00:18.856Z,21.33
2018-10-16T19:02:47.980Z,15.43
2018-10-16T19:05:16.357Z,15.67
2018-10-16T19:07:44.692Z,13.43
2018-10-16T19:10:12.881Z,15.00
2018-10-16T19:12:41.744Z,20.40
2018-10-16T19:15:11.600Z,17.63
2018-10-16T19:17:40.394Z,19.53
2018-10-16T19:20:10.079Z,15.10
2018-10-16T19:22:38.305Z,17.93
2018-10-16T19:25:08.024Z,17.23
2018-10-16T19:27:36.506Z,17.00
2018-10-16T19:30:05.696Z,23.00
2018-10-16T19:32:33.820Z,18.80
2018-10-16T19:35:01.974Z,20.00
2018-10-16T19:37:30.385Z,17.87
2018-10-16T19:39:58.571Z,23.90
2018-10-16T19:42:26.752Z,18.73
2018-10-16T19:44:54.937Z,23.20
2018-10-16T19:47:23.263Z,20.73
2018-10-16T19:49:51.443Z,19.13
2018-10-16T19:52:19.581Z,17.57
2018-10-16T19:54:47.990Z,25.23
2018-10-16T19:57:16.386Z,23.70
2018-10-16T19:59:44.631Z,19.27
2018-10-16T20:02:12.785Z,21.63
2018-10-16T20:04:41.071Z,19.93
2018-10-16T20:07:09.557Z,21.03
2018-10-16T20:09:37.678Z,22.30
2018-10-16T20:12:05.922Z,22.60
2018-10-16T20:14:34.194Z,18.97
2018-10-16T20:17:03.628Z,22.20
2018-10-16T20:19:31.894Z,22.80
2018-10-16T20:22:00.078Z,21.13
2018-10-16T20:24:28.271Z,26.33
2018-10-16T20:26:56.489Z,28.30
2018-10-16T20:29:24.730Z,19.87
2018-10-16T20:31:52.941Z,20.77
2018-10-16T20:34:23.173Z,20.23
2018-10-16T20:36:51.500Z,23.40
2018-10-16T20:39:19.653Z,24.30
2018-10-16T20:41:47.928Z,21.50
2018-10-16T20:44:16.119Z,24.40
2018-10-16T20:46:44.338Z,21.57
2018-10-16T20:49:12.620Z,26.20
2018-10-16T20:51:40.714Z,23.47
2018-10-16T20:54:08.901Z,26.43
2018-10-16T20:56:37.253Z,23.20
2018-10-16T20:59:05.647Z,23.80
2018-10-16T21:01:34.483Z,20.77
2018-10-16T21:04:02.760Z,23.67
2018-10-16T21:06:31.285Z,25.07
2018-10-16T21:08:59.514Z,23.03
2018-10-16T21:11:27.616Z,26.27
2018-10-16T21:13:55.890Z,20.50
2018-10-16T21:16:24.461Z,20.33
2018-10-16T21:18:52.770Z,23.47
2018-10-16T21:21:20.960Z,22.60
2018-10-16T21:23:49.828Z,21.10
2018-10-16T21:26:17.957Z,24.33
2018-10-16T21:28:46.154Z,24.30
2018-10-16T21:31:14.409Z,21.47
2018-10-16T21:33:42.495Z,20.73
2018-10-16T21:36:10.693Z,19.60
2018-10-16T21:38:38.916Z,20.20
2018-10-16T21:41:07.433Z,20.43
2018-10-16T21:43:35.579Z,22.90
2018-10-16T21:46:03.801Z,24.57
2018-10-16T21:48:32.045Z,25.33
2018-10-16T21:51:00.267Z,23.93
2018-10-16T21:53:28.445Z,24.10
2018-10-16T21:55:56.675Z,24.60
2018-10-16T21:58:24.991Z,22.03
2018-10-16T22:00:58.606Z,21.20
2018-10-16T22:03:26.731Z,21.80
2018-10-16T22:05:54.935Z,25.33
2018-10-16T22:08:23.103Z,22.07
2018-10-16T22:10:51.276Z,22.43
2018-10-16T22:13:19.456Z,21.10
2018-10-16T22:15:47.606Z,22.70
2018-10-16T22:18:15.803Z,20.87
2018-10-16T22:20:43.950Z,19.63
2018-10-16T22:23:12.177Z,19.97
2018-10-16T22:25:40.325Z,22.40
2018-10-16T22:28:08.555Z,18.30
2018-10-16T22:30:37.769Z,19.80
2018-10-16T22:33:05.924Z,21.30
2018-10-16T22:35:34.151Z,19.63
2018-10-16T22:38:02.430Z,18.30
2018-10-16T22:40:30.663Z,19.63
2018-10-16T22:42:59.169Z,20.27
2018-10-16T22:45:27.341Z,22.17
2018-10-16T22:47:55.530Z,21.67
2018-10-16T22:50:23.679Z,23.73
2018-10-16T22:52:51.914Z,23.17
2018-10-16T22:55:20.132Z,20.57
2018-10-16T22:57:48.451Z,24.07
2018-10-16T23:00:18.516Z,19.17
2018-10-16T23:02:47.619Z,19.57
2018-10-16T23:05:15.862Z,19.77
2018-10-16T23:07:45.285Z,21.67
2018-10-16T23:10:13.891Z,22.00
2018-10-16T23:12:42.293Z,22.23
2018-10-16T23:15:11.397Z,21.40
2018-10-16T23:17:40.277Z,22.40
2018-10-16T23:20:09.643Z,18.65
2018-10-16T23:22:37.879Z,24.67
2018-10-16T23:25:06.170Z,21.60
2018-10-16T23:27:36.738Z,22.73
2018-10-16T23:30:05.495Z,20.00
2018-10-16T23:32:33.696Z,23.13
2018-10-16T23:35:01.977Z,19.80
2018-10-16T23:37:30.245Z,22.67
2018-10-16T23:39:58.422Z,22.93
2018-10-16T23:42:26.584Z,19.83
2018-10-16T23:44:54.814Z,20.10
2018-10-16T23:47:22.955Z,22.17
2018-10-16T23:49:51.165Z,22.07
2018-10-16T23:52:19.380Z,22.70
2018-10-16T23:54:47.546Z,22.40
2018-10-16T23:57:15.833Z,23.23
2018-10-16T23:59:43.989Z,19.70
